Time;durP1;ratioP1;P1;durP2;ratioP2;P2;SDS_P1;SDS_P2;PMS_P1;PMS_P2;Temp;Humidity;BMP_temperature;BMP_pressure;BME280_temperature;BME280_humidity;BME280_pressure;Samples;Min_cycle;Max_cycle;Signal;HPM_P1;HPM_P2
2021/06/21 00:02:23;;;;;;;;;;;15.70;99.90;;;;;;5085584;28;19958;-56
2021/06/21 00:04:51;;;;;;;;;;;15.70;99.90;;;;;;5071422;28;19965;-54
2021/06/21 00:07:17;;;;;;;;;;;15.60;99.90;;;;;;5084039;28;20382;-55
2021/06/21 00:09:43;;;;;;;;;;;15.50;99.90;;;;;;5072286;28;19916;-58
2021/06/21 00:12:09;;;;;;;;;;;15.50;99.90;;;;;;5087425;28;19916;-59
2021/06/21 00:14:35;;;;;;;;;;;15.40;99.90;;;;;;5091028;28;20462;-58
2021/06/21 00:17:00;;;;;;;;;;;15.40;99.90;;;;;;5087367;28;19908;-56
2021/06/21 00:19:27;;;;;;;;;;;15.40;99.90;;;;;;5085186;28;20278;-58
2021/06/21 00:21:53;;;;;;;;;;;15.30;99.90;;;;;;5089216;28;19962;-56
2021/06/21 00:24:20;;;;;;;;;;;15.30;99.90;;;;;;5049217;28;20283;-57
2021/06/21 00:26:46;;;;;;;;;;;15.30;99.90;;;;;;5082291;28;20116;-56
2021/06/21 00:29:11;;;;;;;;;;;15.20;99.90;;;;;;5091269;28;19966;-57
2021/06/21 00:31:37;;;;;;;;;;;15.20;99.90;;;;;;5083420;28;19916;-55
2021/06/21 00:34:02;;;;;;;;;;;15.20;99.90;;;;;;5090968;28;19950;-55
2021/06/21 00:36:28;;;;;;;;;;;15.20;99.90;;;;;;5086213;28;20701;-56
2021/06/21 00:38:53;;;;;;;;;;;15.20;99.90;;;;;;5090147;28;19973;-56
2021/06/21 00:41:19;;;;;;;;;;;15.20;99.90;;;;;;5089228;28;19915;-55
2021/06/21 00:43:45;;;;;;;;;;;15.20;99.90;;;;;;5063902;28;20391;-58
2021/06/21 00:46:10;;;;;;;;;;;15.20;99.90;;;;;;5090709;28;19908;-54
2021/06/21 00:48:36;;;;;;;;;;;15.20;99.90;;;;;;5057192;28;19916;-55
2021/06/21 00:51:01;;;;;;;;;;;15.20;99.90;;;;;;5090390;28;19916;-56
2021/06/21 00:53:27;;;;;;;;;;;15.10;99.90;;;;;;5086251;28;19909;-55
2021/06/21 00:55:53;;;;;;;;;;;15.10;99.90;;;;;;5089263;28;19927;-54
2021/06/21 00:58:18;;;;;;;;;;;15.00;99.90;;;;;;5087816;28;20797;-54
2021/06/21 01:00:44;;;;;;;;;;;15.10;99.90;;;;;;5061223;28;19958;-54
2021/06/21 01:03:09;;;;;;;;;;;15.00;99.90;;;;;;5087556;28;19919;-54
2021/06/21 01:05:35;;;;;;;;;;;15.00;99.90;;;;;;5083026;28;19908;-56
2021/06/21 01:08:06;;;;;;;;;;;15.10;99.90;;;;;;5090023;28;19912;-57
2021/06/21 01:10:32;;;;;;;;;;;15.00;99.90;;;;;;5085267;28;19916;-56
2021/06/21 01:13:10;;;;;;;;;;;15.00;99.90;;;;;;5072122;28;20002;-58
2021/06/21 01:15:39;;;;;;;;;;;15.00;99.90;;;;;;5086421;28;20297;-57
2021/06/21 01:18:09;;;;;;;;;;;15.00;99.90;;;;;;5083580;28;20378;-55
2021/06/21 01:20:41;;;;;;;;;;;14.90;99.90;;;;;;5070052;28;19948;-57
2021/06/21 01:23:09;;;;;;;;;;;14.90;99.90;;;;;;5084531;28;19908;-59
2021/06/21 01:25:41;;;;;;;;;;;14.90;99.90;;;;;;5085822;28;20421;-55
2021/06/21 01:28:25;;;;;;;;;;;14.80;99.90;;;;;;5082295;28;19909;-55
2021/06/21 01:30:59;;;;;;;;;;;14.90;99.90;;;;;;5088159;28;19912;-58
2021/06/21 01:33:25;;;;;;;;;;;14.90;99.90;;;;;;5077938;28;20259;-54
2021/06/21 01:35:57;;;;;;;;;;;14.90;99.90;;;;;;5088597;28;20008;-56
2021/06/21 01:38:27;;;;;;;;;;;14.80;99.90;;;;;;5085707;28;19915;-57
2021/06/21 01:40:53;;;;;;;;;;;14.70;99.90;;;;;;5089240;28;20013;-54
2021/06/21 01:43:22;;;;;;;;;;;14.70;99.90;;;;;;5083032;28;19919;-54
2021/06/21 01:45:48;;;;;;;;;;;14.70;99.90;;;;;;5086440;28;19999;-58
2021/06/21 01:48:15;;;;;;;;;;;14.70;99.90;;;;;;5085268;28;19995;-55
2021/06/21 01:50:41;;;;;;;;;;;14.60;99.90;;;;;;5068301;28;19912;-55
2021/06/21 01:53:09;;;;;;;;;;;14.60;99.90;;;;;;5087953;28;19919;-58
2021/06/21 01:55:36;;;;;;;;;;;14.70;99.90;;;;;;5085698;28;20459;-55
2021/06/21 01:58:01;;;;;;;;;;;14.70;99.90;;;;;;5089195;28;20336;-57
2021/06/21 02:00:28;;;;;;;;;;;14.60;99.90;;;;;;5081529;28;19912;-59
2021/06/21 02:02:54;;;;;;;;;;;14.60;99.90;;;;;;5087342;28;19965;-54
2021/06/21 02:05:20;;;;;;;;;;;14.60;99.90;;;;;;5084253;28;19948;-55
2021/06/21 02:07:47;;;;;;;;;;;14.60;99.90;;;;;;5086927;28;19955;-54
2021/06/21 02:10:13;;;;;;;;;;;14.60;99.90;;;;;;5086439;28;19948;-57
2021/06/21 02:12:39;;;;;;;;;;;14.60;99.90;;;;;;5061849;28;19908;-55
2021/06/21 02:15:06;;;;;;;;;;;14.60;99.90;;;;;;5083163;28;20279;-58
2021/06/21 02:17:32;;;;;;;;;;;14.60;99.90;;;;;;5087052;28;20277;-56
2021/06/21 02:19:58;;;;;;;;;;;14.70;99.90;;;;;;5084106;28;19908;-55
2021/06/21 02:22:25;;;;;;;;;;;14.70;99.90;;;;;;5087478;28;20359;-53
2021/06/21 02:24:52;;;;;;;;;;;14.60;99.90;;;;;;5056825;28;19916;-54
2021/06/21 02:27:18;;;;;;;;;;;14.60;99.90;;;;;;5082947;28;19954;-58
2021/06/21 02:29:44;;;;;;;;;;;14.60;99.90;;;;;;5081190;28;19955;-58
2021/06/21 02:32:09;;;;;;;;;;;14.50;99.90;;;;;;5088165;28;19939;-57
2021/06/21 02:34:35;;;;;;;;;;;14.50;99.90;;;;;;5087306;28;19969;-55
2021/06/21 02:37:01;;;;;;;;;;;14.50;99.90;;;;;;5065086;28;19964;-54
2021/06/21 02:39:27;;;;;;;;;;;14.50;99.90;;;;;;5069618;28;19986;-57
2021/06/21 02:41:53;;;;;;;;;;;14.50;99.90;;;;;;5084128;28;20274;-56
2021/06/21 02:44:18;;;;;;;;;;;14.50;99.90;;;;;;5080954;28;19941;-56
2021/06/21 02:46:44;;;;;;;;;;;14.50;99.90;;;;;;5085941;28;19908;-54
2021/06/21 02:49:09;;;;;;;;;;;14.50;99.90;;;;;;5063573;28;19912;-53
2021/06/21 02:51:47;;;;;;;;;;;14.60;99.90;;;;;;5086754;28;19996;-58
2021/06/21 02:54:15;;;;;;;;;;;14.50;99.90;;;;;;5083518;28;19912;-56
2021/06/21 02:56:46;;;;;;;;;;;14.50;99.90;;;;;;5087103;28;19915;-60
2021/06/21 02:59:13;;;;;;;;;;;14.50;99.90;;;;;;5082165;28;19923;-62
2021/06/21 03:01:46;;;;;;;;;;;14.40;99.90;;;;;;5084019;28;19915;-60
2021/06/21 03:04:13;;;;;;;;;;;14.40;99.90;;;;;;5084688;28;19920;-62
2021/06/21 03:06:40;;;;;;;;;;;14.40;99.90;;;;;;5085148;28;19939;-60
2021/06/21 03:09:05;;;;;;;;;;;14.40;99.90;;;;;;5079012;28;19955;-61
2021/06/21 03:11:31;;;;;;;;;;;14.30;99.90;;;;;;5078947;28;19916;-60
2021/06/21 03:13:57;;;;;;;;;;;14.40;99.90;;;;;;5088104;28;19908;-62
2021/06/21 03:16:26;;;;;;;;;;;14.40;99.90;;;;;;5063185;28;20340;-61
2021/06/21 03:18:52;;;;;;;;;;;14.40;99.90;;;;;;5085726;28;20315;-61
2021/06/21 03:21:18;;;;;;;;;;;14.40;99.90;;;;;;5065894;28;19909;-60
2021/06/21 03:23:43;;;;;;;;;;;14.40;99.90;;;;;;5085680;28;19912;-60
2021/06/21 03:26:09;;;;;;;;;;;14.40;99.90;;;;;;5086168;28;19923;-57
2021/06/21 03:28:34;;;;;;;;;;;14.50;99.90;;;;;;5085346;28;19969;-57
2021/06/21 03:31:03;;;;;;;;;;;14.50;99.90;;;;;;5088316;28;19942;-54
2021/06/21 03:33:28;;;;;;;;;;;14.40;99.90;;;;;;5081520;28;19916;-54
2021/06/21 03:35:54;;;;;;;;;;;14.40;99.90;;;;;;5087152;28;20370;-53
2021/06/21 03:38:20;;;;;;;;;;;14.40;99.90;;;;;;5085428;28;20036;-53
2021/06/21 03:40:47;;;;;;;;;;;14.30;99.90;;;;;;5078604;28;19916;-55
2021/06/21 03:43:13;;;;;;;;;;;14.30;99.90;;;;;;5087707;28;19909;-56
2021/06/21 03:45:39;;;;;;;;;;;14.30;99.90;;;;;;5074432;28;19908;-53
2021/06/21 03:48:05;;;;;;;;;;;14.40;99.90;;;;;;5069210;28;19908;-52
2021/06/21 03:50:30;;;;;;;;;;;14.30;99.90;;;;;;5081999;28;19996;-55
2021/06/21 03:52:56;;;;;;;;;;;14.40;99.90;;;;;;5087235;28;19952;-53
2021/06/21 03:55:21;;;;;;;;;;;14.40;99.90;;;;;;5084594;28;20226;-54
2021/06/21 03:57:49;;;;;;;;;;;14.40;99.90;;;;;;5078587;28;20281;-54
2021/06/21 04:00:16;;;;;;;;;;;14.30;99.90;;;;;;5076053;28;19915;-55
2021/06/21 04:02:42;;;;;;;;;;;14.30;99.90;;;;;;5079731;28;19947;-56
2021/06/21 04:05:07;;;;;;;;;;;14.30;99.90;;;;;;5069701;28;20356;-55
2021/06/21 04:07:33;;;;;;;;;;;14.40;99.90;;;;;;5063779;28;19912;-57
2021/06/21 04:09:58;;;;;;;;;;;14.40;99.90;;;;;;5087325;28;20006;-58
2021/06/21 04:12:25;;;;;;;;;;;14.40;99.90;;;;;;5084657;28;19908;-58
2021/06/21 04:14:51;;;;;;;;;;;14.40;99.90;;;;;;5078415;28;20379;-57
2021/06/21 04:17:16;;;;;;;;;;;14.30;99.90;;;;;;5087252;28;19999;-57
2021/06/21 04:19:42;;;;;;;;;;;14.30;99.90;;;;;;5079160;28;19912;-54
2021/06/21 04:22:07;;;;;;;;;;;14.30;99.90;;;;;;5087507;28;19915;-57
2021/06/21 04:24:33;;;;;;;;;;;14.30;99.90;;;;;;5063242;28;20347;-54
2021/06/21 04:26:58;;;;;;;;;;;14.30;99.90;;;;;;5087300;28;20389;-53
2021/06/21 04:29:24;;;;;;;;;;;14.30;99.90;;;;;;5066543;28;19915;-55
2021/06/21 04:31:49;;;;;;;;;;;14.30;99.90;;;;;;5078289;28;19999;-57
2021/06/21 04:34:15;;;;;;;;;;;14.30;99.90;;;;;;5065565;28;20393;-55
2021/06/21 04:36:40;;;;;;;;;;;14.30;99.90;;;;;;5087140;28;19962;-52
2021/06/21 04:39:06;;;;;;;;;;;14.30;99.90;;;;;;5068596;28;19908;-56
2021/06/21 04:41:31;;;;;;;;;;;14.30;99.90;;;;;;5085272;28;20315;-53
2021/06/21 04:43:57;;;;;;;;;;;14.30;99.90;;;;;;5067959;28;20405;-55
2021/06/21 04:46:25;;;;;;;;;;;14.20;99.90;;;;;;5067561;28;19908;-53
2021/06/21 04:48:50;;;;;;;;;;;14.30;99.90;;;;;;5087542;28;20366;-53
2021/06/21 04:51:18;;;;;;;;;;;14.20;99.90;;;;;;5086818;28;19908;-53
2021/06/21 04:53:45;;;;;;;;;;;14.30;99.90;;;;;;5090232;28;19909;-55
2021/06/21 04:56:11;;;;;;;;;;;14.30;99.90;;;;;;5086679;28;19939;-53
2021/06/21 04:58:36;;;;;;;;;;;14.30;99.90;;;;;;5084363;28;19958;-56
2021/06/21 05:01:02;;;;;;;;;;;14.30;99.90;;;;;;5086479;28;19913;-58
2021/06/21 05:03:27;;;;;;;;;;;14.30;99.90;;;;;;5085821;28;19919;-57
2021/06/21 05:05:53;;;;;;;;;;;14.40;99.90;;;;;;5087396;28;19962;-54
2021/06/21 05:08:18;;;;;;;;;;;14.40;99.90;;;;;;5068502;28;19916;-54
2021/06/21 05:10:44;;;;;;;;;;;14.40;99.90;;;;;;5089828;28;19999;-56
2021/06/21 05:13:09;;;;;;;;;;;14.40;99.90;;;;;;5068716;28;19951;-57
2021/06/21 05:15:35;;;;;;;;;;;14.40;99.90;;;;;;5084005;28;19941;-58
2021/06/21 05:18:00;;;;;;;;;;;14.40;99.90;;;;;;5086123;28;19908;-53
2021/06/21 05:20:26;;;;;;;;;;;14.40;99.90;;;;;;5085740;28;20057;-56
2021/06/21 05:22:52;;;;;;;;;;;14.40;99.90;;;;;;5087299;28;19920;-52
2021/06/21 05:25:18;;;;;;;;;;;14.50;99.90;;;;;;5086164;28;19913;-53
2021/06/21 05:27:44;;;;;;;;;;;14.50;99.90;;;;;;5089538;28;19948;-55
2021/06/21 05:30:10;;;;;;;;;;;14.50;99.90;;;;;;5068360;28;20060;-52
2021/06/21 05:32:36;;;;;;;;;;;14.50;99.90;;;;;;5084353;28;19914;-57
2021/06/21 05:35:02;;;;;;;;;;;14.60;99.90;;;;;;5084636;28;19999;-54
2021/06/21 05:37:28;;;;;;;;;;;14.60;99.90;;;;;;5089464;28;19908;-54
2021/06/21 05:39:53;;;;;;;;;;;14.60;99.90;;;;;;5085871;28;20346;-54
2021/06/21 05:42:19;;;;;;;;;;;14.60;99.90;;;;;;5082464;28;20096;-56
2021/06/21 05:44:44;;;;;;;;;;;14.60;99.90;;;;;;5087064;28;20438;-57
2021/06/21 05:47:10;;;;;;;;;;;14.60;99.90;;;;;;5083249;28;19991;-57
2021/06/21 05:49:36;;;;;;;;;;;14.60;99.90;;;;;;5088206;28;19908;-58
2021/06/21 05:52:01;;;;;;;;;;;14.60;99.90;;;;;;5084950;28;20415;-55
2021/06/21 05:54:27;;;;;;;;;;;14.60;99.90;;;;;;5088968;28;20376;-57
2021/06/21 05:56:52;;;;;;;;;;;14.60;99.90;;;;;;5085768;28;20290;-57
2021/06/21 05:59:18;;;;;;;;;;;14.70;99.90;;;;;;5081736;28;19915;-56
2021/06/21 06:01:43;;;;;;;;;;;14.70;99.90;;;;;;5087580;28;19908;-56
2021/06/21 06:04:09;;;;;;;;;;;14.70;99.90;;;;;;5083320;28;19920;-57
2021/06/21 06:06:34;;;;;;;;;;;14.70;99.90;;;;;;5087984;28;19950;-58
2021/06/21 06:09:00;;;;;;;;;;;14.70;99.90;;;;;;5084843;28;19912;-54
2021/06/21 06:11:25;;;;;;;;;;;14.70;99.90;;;;;;5070824;28;19915;-56
2021/06/21 06:13:51;;;;;;;;;;;14.70;99.90;;;;;;5086045;28;20011;-58
2021/06/21 06:16:16;;;;;;;;;;;14.80;99.90;;;;;;5081354;28;20309;-58
2021/06/21 06:18:44;;;;;;;;;;;14.80;99.90;;;;;;5086984;28;19912;-58
2021/06/21 06:21:09;;;;;;;;;;;14.80;99.90;;;;;;5082745;28;19916;-55
2021/06/21 06:23:35;;;;;;;;;;;14.80;99.90;;;;;;5087783;28;19915;-58
2021/06/21 06:26:01;;;;;;;;;;;14.80;99.90;;;;;;5084394;28;20406;-54
2021/06/21 06:28:26;;;;;;;;;;;14.80;99.90;;;;;;5088482;28;19987;-58
2021/06/21 06:30:53;;;;;;;;;;;14.80;99.90;;;;;;5085803;28;19912;-57
2021/06/21 06:33:18;;;;;;;;;;;14.80;99.90;;;;;;5081504;28;19908;-56
2021/06/21 06:35:44;;;;;;;;;;;14.90;99.90;;;;;;5086282;28;20332;-57
2021/06/21 06:38:09;;;;;;;;;;;14.90;99.90;;;;;;5087720;28;20358;-59
2021/06/21 06:40:35;;;;;;;;;;;14.90;99.90;;;;;;5079707;28;19916;-55
2021/06/21 06:43:00;;;;;;;;;;;14.90;99.90;;;;;;5069231;28;19908;-60
2021/06/21 06:45:26;;;;;;;;;;;14.90;99.90;;;;;;5081766;28;20007;-58
2021/06/21 06:47:52;;;;;;;;;;;14.90;99.90;;;;;;5086303;28;20305;-58
2021/06/21 06:50:17;;;;;;;;;;;14.90;99.90;;;;;;5084876;28;20397;-57
2021/06/21 06:52:44;;;;;;;;;;;15.00;99.90;;;;;;5086366;28;19908;-58
2021/06/21 06:57:54;;;;;;;;;;;14.90;99.90;;;;;;5080184;28;19924;-56
2021/06/21 07:00:20;;;;;;;;;;;14.90;99.90;;;;;;5087654;28;19908;-57
2021/06/21 07:02:46;;;;;;;;;;;14.90;99.90;;;;;;5080378;28;20007;-58
2021/06/21 07:05:12;;;;;;;;;;;14.90;99.90;;;;;;5088873;28;20003;-56
2021/06/21 07:07:37;;;;;;;;;;;14.90;99.90;;;;;;5063839;28;19912;-57
2021/06/21 07:10:04;;;;;;;;;;;14.90;99.90;;;;;;5088657;28;19908;-59
2021/06/21 07:12:29;;;;;;;;;;;14.90;99.90;;;;;;5066502;28;20003;-60
2021/06/21 07:14:55;;;;;;;;;;;14.90;99.90;;;;;;5079776;28;20020;-58
2021/06/21 07:17:20;;;;;;;;;;;14.90;99.90;;;;;;5087624;28;19908;-59
2021/06/21 07:19:46;;;;;;;;;;;15.00;99.90;;;;;;5079823;28;19916;-58
2021/06/21 07:22:11;;;;;;;;;;;15.00;99.90;;;;;;5088838;28;20571;-57
2021/06/21 07:24:37;;;;;;;;;;;15.00;99.90;;;;;;5081396;28;19913;-59
2021/06/21 07:27:03;;;;;;;;;;;15.00;99.90;;;;;;5070445;28;19930;-57
2021/06/21 07:29:28;;;;;;;;;;;15.00;99.90;;;;;;5084738;28;19912;-61
2021/06/21 07:31:53;;;;;;;;;;;15.00;99.90;;;;;;5079839;28;19912;-60
2021/06/21 07:34:19;;;;;;;;;;;15.00;99.90;;;;;;5083910;28;19908;-59
2021/06/21 07:36:44;;;;;;;;;;;15.00;99.90;;;;;;5086675;28;19908;-59
2021/06/21 07:39:10;;;;;;;;;;;15.10;99.90;;;;;;5066028;28;20346;-59
2021/06/21 07:41:36;;;;;;;;;;;15.10;99.90;;;;;;5081517;28;20279;-61
2021/06/21 07:44:02;;;;;;;;;;;15.20;99.90;;;;;;5065621;28;19923;-58
2021/06/21 07:46:27;;;;;;;;;;;15.20;99.90;;;;;;5082763;28;19953;-60
2021/06/21 07:48:53;;;;;;;;;;;15.20;99.90;;;;;;5084585;28;19915;-60
2021/06/21 07:51:18;;;;;;;;;;;15.20;99.90;;;;;;5083744;28;20317;-58
2021/06/21 07:53:45;;;;;;;;;;;15.20;99.90;;;;;;5087082;28;19909;-53
2021/06/21 07:56:13;;;;;;;;;;;15.20;99.90;;;;;;5083991;28;19960;-53
2021/06/21 07:58:40;;;;;;;;;;;15.20;99.90;;;;;;5080869;28;19916;-56
2021/06/21 08:01:06;;;;;;;;;;;15.10;99.90;;;;;;5084332;28;19912;-53
2021/06/21 08:03:32;;;;;;;;;;;15.20;99.90;;;;;;5083190;28;19912;-53
2021/06/21 08:06:01;;;;;;;;;;;15.20;99.90;;;;;;5084315;28;19995;-59
2021/06/21 08:08:27;;;;;;;;;;;15.10;99.90;;;;;;5083537;28;20337;-54
2021/06/21 08:10:53;;;;;;;;;;;15.10;99.90;;;;;;5086063;28;20007;-55
2021/06/21 08:13:18;;;;;;;;;;;15.00;99.90;;;;;;5087743;28;20282;-56
2021/06/21 08:15:44;;;;;;;;;;;15.00;99.90;;;;;;5084031;28;19908;-57
2021/06/21 08:18:10;;;;;;;;;;;15.10;99.90;;;;;;5086799;28;20285;-58
2021/06/21 08:20:36;;;;;;;;;;;15.10;99.90;;;;;;5084543;28;19912;-57
2021/06/21 08:23:01;;;;;;;;;;;15.10;99.90;;;;;;5086056;28;19915;-60
2021/06/21 08:25:27;;;;;;;;;;;15.10;99.90;;;;;;5087248;28;19912;-59
2021/06/21 08:27:52;;;;;;;;;;;15.10;99.90;;;;;;5090100;28;19926;-59
2021/06/21 08:30:18;;;;;;;;;;;15.20;99.90;;;;;;5088611;28;19931;-60
2021/06/21 08:32:44;;;;;;;;;;;15.20;99.90;;;;;;5085785;28;19922;-53
2021/06/21 08:35:10;;;;;;;;;;;15.20;99.90;;;;;;5068171;28;20270;-60
2021/06/21 08:37:35;;;;;;;;;;;15.20;99.90;;;;;;5090625;28;19915;-60
2021/06/21 08:40:04;;;;;;;;;;;15.20;99.90;;;;;;5068226;28;20332;-59
2021/06/21 08:42:30;;;;;;;;;;;15.20;99.90;;;;;;5084923;28;19973;-59
2021/06/21 08:44:57;;;;;;;;;;;15.20;99.90;;;;;;5070047;28;19946;-59
2021/06/21 08:47:23;;;;;;;;;;;15.20;99.90;;;;;;5078055;28;20366;-61
2021/06/21 08:49:49;;;;;;;;;;;15.20;99.90;;;;;;5089357;28;20290;-57
2021/06/21 08:52:16;;;;;;;;;;;15.20;99.90;;;;;;5086184;28;19908;-60
2021/06/21 08:54:41;;;;;;;;;;;15.30;99.90;;;;;;5089810;28;20368;-58
2021/06/21 08:57:07;;;;;;;;;;;15.30;99.90;;;;;;5085048;28;19912;-58
2021/06/21 08:59:33;;;;;;;;;;;15.30;99.90;;;;;;5085231;28;20277;-59
2021/06/21 09:01:59;;;;;;;;;;;15.30;99.90;;;;;;5088227;28;19908;-58
2021/06/21 09:04:24;;;;;;;;;;;15.30;99.90;;;;;;5084747;28;20335;-58
2021/06/21 09:06:50;;;;;;;;;;;15.40;99.90;;;;;;5089058;28;20374;-60
2021/06/21 09:09:16;;;;;;;;;;;15.40;99.90;;;;;;5068029;28;19908;-57
2021/06/21 09:11:45;;;;;;;;;;;15.50;99.90;;;;;;5090094;28;19908;-58
2021/06/21 09:14:26;;;;;;;;;;;15.50;99.90;;;;;;5066175;28;19920;-58
2021/06/21 09:17:10;;;;;;;;;;;15.50;99.90;;;;;;5087598;28;19990;-61
2021/06/21 09:19:53;;;;;;;;;;;15.60;99.90;;;;;;5082538;28;19908;-58
2021/06/21 09:22:24;;;;;;;;;;;15.60;99.90;;;;;;5078776;28;19908;-60
2021/06/21 09:24:50;;;;;;;;;;;15.50;99.90;;;;;;5061547;28;19936;-59
2021/06/21 09:27:18;;;;;;;;;;;15.50;99.90;;;;;;5092365;28;19908;-61
2021/06/21 09:29:44;;;;;;;;;;;15.40;99.90;;;;;;5066431;28;20374;-58
2021/06/21 09:32:09;;;;;;;;;;;15.40;99.90;;;;;;5084394;28;20370;-60
2021/06/21 09:34:38;;;;;;;;;;;15.40;99.90;;;;;;5086027;28;19953;-59
2021/06/21 09:37:07;;;;;;;;;;;15.40;99.90;;;;;;5088509;28;19908;-58
2021/06/21 09:39:33;;;;;;;;;;;15.50;99.90;;;;;;5086694;28;19923;-59
2021/06/21 09:42:20;;;;;;;;;;;15.50;99.90;;;;;;5081573;28;19909;-58
2021/06/21 09:44:52;;;;;;;;;;;15.50;99.90;;;;;;5087285;28;19912;-59
2021/06/21 09:47:21;;;;;;;;;;;15.50;99.90;;;;;;5082679;28;19908;-59
2021/06/21 09:49:52;;;;;;;;;;;15.50;99.90;;;;;;5088123;28;19915;-60
2021/06/21 09:52:36;;;;;;;;;;;15.60;99.90;;;;;;5082454;28;19909;-56
2021/06/21 09:55:20;;;;;;;;;;;15.60;99.90;;;;;;5070488;28;19912;-60
2021/06/21 09:57:47;;;;;;;;;;;15.60;99.90;;;;;;5058744;28;19916;-60
2021/06/21 10:00:14;;;;;;;;;;;15.70;99.90;;;;;;5089958;28;19908;-59
2021/06/21 10:02:40;;;;;;;;;;;15.70;99.90;;;;;;5076955;28;19908;-59
2021/06/21 10:05:16;;;;;;;;;;;15.80;99.90;;;;;;5089181;28;19916;-59
2021/06/21 10:07:42;;;;;;;;;;;15.80;99.90;;;;;;5082638;28;20004;-62
2021/06/21 10:10:09;;;;;;;;;;;15.80;99.90;;;;;;5090656;28;19944;-53
2021/06/21 10:12:36;;;;;;;;;;;15.80;99.90;;;;;;5085069;28;19967;-57
2021/06/21 10:15:02;;;;;;;;;;;15.80;99.90;;;;;;5081745;28;19940;-54
2021/06/21 10:17:28;;;;;;;;;;;15.70;99.90;;;;;;5087667;28;19908;-59
2021/06/21 10:19:54;;;;;;;;;;;15.70;99.90;;;;;;5081722;28;20405;-58
2021/06/21 10:22:23;;;;;;;;;;;15.70;99.90;;;;;;5072336;28;19909;-59
2021/06/21 10:24:52;;;;;;;;;;;15.70;99.90;;;;;;5078072;28;19913;-58
2021/06/21 10:27:21;;;;;;;;;;;15.80;99.90;;;;;;5091261;28;19908;-59
2021/06/21 10:29:47;;;;;;;;;;;15.80;99.90;;;;;;5083112;28;19909;-58
2021/06/21 10:32:14;;;;;;;;;;;15.80;99.90;;;;;;5083295;28;19908;-59
2021/06/21 10:34:39;;;;;;;;;;;15.80;99.90;;;;;;5083918;28;20404;-57
2021/06/21 10:37:12;;;;;;;;;;;15.80;99.90;;;;;;5069144;28;19915;-59
2021/06/21 10:39:43;;;;;;;;;;;15.90;99.90;;;;;;5085768;28;20298;-59
2021/06/21 10:42:10;;;;;;;;;;;15.90;99.90;;;;;;5080600;28;19961;-60
2021/06/21 10:44:36;;;;;;;;;;;15.90;99.90;;;;;;5068026;28;19912;-57
2021/06/21 10:47:22;;;;;;;;;;;15.90;99.90;;;;;;5082226;28;19915;-57
2021/06/21 10:49:53;;;;;;;;;;;15.90;99.90;;;;;;5087067;28;19915;-58
2021/06/21 10:52:38;;;;;;;;;;;15.90;99.90;;;;;;5082006;28;19916;-56
2021/06/21 10:55:28;;;;;;;;;;;16.00;99.90;;;;;;5087338;28;19918;-60
2021/06/21 10:58:00;;;;;;;;;;;16.00;99.90;;;;;;5077120;28;19917;-59
2021/06/21 11:00:37;;;;;;;;;;;16.00;99.90;;;;;;5087064;28;20009;-58
2021/06/21 11:03:22;;;;;;;;;;;16.00;99.90;;;;;;5082116;28;20302;-59
2021/06/21 11:05:47;;;;;;;;;;;16.00;99.90;;;;;;5085102;28;19918;-58
2021/06/21 11:08:13;;;;;;;;;;;16.00;99.90;;;;;;5084256;28;20295;-54
2021/06/21 11:10:38;;;;;;;;;;;15.90;99.90;;;;;;5088189;28;19908;-53
2021/06/21 11:13:22;;;;;;;;;;;15.90;99.90;;;;;;5083027;28;19909;-57
2021/06/21 11:16:07;;;;;;;;;;;16.00;99.90;;;;;;5061663;28;20389;-58
2021/06/21 11:18:32;;;;;;;;;;;16.00;99.90;;;;;;5074394;28;19919;-56
2021/06/21 11:21:10;;;;;;;;;;;16.00;99.90;;;;;;5081824;28;20317;-58
2021/06/21 11:23:43;;;;;;;;;;;16.00;99.90;;;;;;5086829;28;20024;-56
2021/06/21 11:26:08;;;;;;;;;;;16.00;99.90;;;;;;5083315;28;19986;-58
2021/06/21 11:28:41;;;;;;;;;;;16.10;99.90;;;;;;5087864;28;19909;-56
2021/06/21 11:31:19;;;;;;;;;;;16.20;99.90;;;;;;5082904;28;20413;-57
2021/06/21 11:33:58;;;;;;;;;;;16.20;99.90;;;;;;5080350;28;19908;-59
2021/06/21 11:36:37;;;;;;;;;;;16.20;99.90;;;;;;5076157;28;19958;-54
2021/06/21 11:39:22;;;;;;;;;;;16.20;99.90;;;;;;5081427;28;19932;-57
2021/06/21 11:41:59;;;;;;;;;;;16.10;99.90;;;;;;5080013;28;19908;-52
2021/06/21 11:44:37;;;;;;;;;;;16.10;99.90;;;;;;5071879;28;20011;-56
2021/06/21 11:47:14;;;;;;;;;;;16.10;99.90;;;;;;5086322;28;19913;-58
2021/06/21 11:49:40;;;;;;;;;;;16.00;99.90;;;;;;5093167;28;20263;-55
2021/06/21 11:52:05;;;;;;;;;;;16.00;99.90;;;;;;5089736;28;19909;-57
2021/06/21 11:54:38;;;;;;;;;;;16.00;99.90;;;;;;5075514;28;19908;-60
2021/06/21 11:57:03;;;;;;;;;;;16.00;99.90;;;;;;5071218;28;19918;-58
2021/06/21 11:59:39;;;;;;;;;;;16.00;99.90;;;;;;5088706;28;19908;-54
2021/06/21 12:02:05;;;;;;;;;;;16.00;99.90;;;;;;5090866;28;19999;-57
2021/06/21 12:04:31;;;;;;;;;;;16.10;99.90;;;;;;5089025;28;19999;-58
2021/06/21 12:06:56;;;;;;;;;;;16.10;99.90;;;;;;5092947;28;19908;-57
2021/06/21 12:09:22;;;;;;;;;;;16.10;99.90;;;;;;5071478;28;19916;-56
2021/06/21 12:11:52;;;;;;;;;;;16.10;99.90;;;;;;5093905;28;19908;-57
2021/06/21 12:14:24;;;;;;;;;;;16.10;99.90;;;;;;5064676;28;19951;-58
2021/06/21 12:16:52;;;;;;;;;;;16.10;99.90;;;;;;5091129;28;19915;-59
2021/06/21 12:19:22;;;;;;;;;;;16.10;99.90;;;;;;5089024;28;19912;-60
2021/06/21 12:21:47;;;;;;;;;;;16.10;99.90;;;;;;5091749;28;20006;-61
2021/06/21 12:24:16;;;;;;;;;;;16.20;99.90;;;;;;5073091;28;20468;-61
2021/06/21 12:26:42;;;;;;;;;;;16.20;99.90;;;;;;5091571;28;19915;-60
2021/06/21 12:29:26;;;;;;;;;;;16.20;99.90;;;;;;5093942;28;19937;-61
2021/06/21 12:31:53;;;;;;;;;;;16.20;99.90;;;;;;5082667;28;19943;-57
2021/06/21 12:34:37;;;;;;;;;;;16.10;99.90;;;;;;5090189;28;19993;-57
2021/06/21 12:37:10;;;;;;;;;;;16.20;99.90;;;;;;5092398;28;19935;-62
2021/06/21 12:39:35;;;;;;;;;;;16.10;99.90;;;;;;5090926;28;19908;-61
2021/06/21 12:42:06;;;;;;;;;;;16.10;99.90;;;;;;5085900;28;20365;-60
2021/06/21 12:44:32;;;;;;;;;;;16.10;99.90;;;;;;5091470;28;19912;-60
2021/06/21 12:46:57;;;;;;;;;;;16.10;99.90;;;;;;5087491;28;19923;-60
2021/06/21 12:49:24;;;;;;;;;;;16.10;99.90;;;;;;5074314;28;20390;-60
2021/06/21 12:51:50;;;;;;;;;;;16.10;99.90;;;;;;5089267;28;19915;-60
2021/06/21 12:54:20;;;;;;;;;;;16.10;99.90;;;;;;5093335;28;19908;-60
2021/06/21 12:56:51;;;;;;;;;;;16.10;99.90;;;;;;5090490;28;19915;-59
2021/06/21 12:59:28;;;;;;;;;;;16.10;99.90;;;;;;5056598;28;19912;-55
2021/06/21 13:01:54;;;;;;;;;;;16.10;99.90;;;;;;5088714;28;19907;-56
2021/06/21 13:04:20;;;;;;;;;;;16.20;99.90;;;;;;5084161;28;20393;-55
2021/06/21 13:06:47;;;;;;;;;;;16.20;99.90;;;;;;5089020;28;19934;-55
2021/06/21 13:09:14;;;;;;;;;;;16.20;99.90;;;;;;5085927;28;19919;-58
2021/06/21 13:11:47;;;;;;;;;;;16.30;99.90;;;;;;5071885;28;19916;-57
2021/06/21 13:14:13;;;;;;;;;;;16.30;99.90;;;;;;5084202;28;20003;-53
2021/06/21 13:16:38;;;;;;;;;;;16.20;99.90;;;;;;5085868;28;19950;-56
2021/06/21 13:19:10;;;;;;;;;;;16.10;99.90;;;;;;5086970;28;20019;-54
2021/06/21 13:21:38;;;;;;;;;;;16.10;99.90;;;;;;5086123;28;20427;-56
2021/06/21 13:24:04;;;;;;;;;;;16.20;99.90;;;;;;5088417;28;19965;-57
2021/06/21 13:26:31;;;;;;;;;;;16.20;99.90;;;;;;5086056;28;20380;-58
2021/06/21 13:28:56;;;;;;;;;;;16.20;99.90;;;;;;5089875;28;19962;-54
2021/06/21 13:31:23;;;;;;;;;;;16.30;99.90;;;;;;5082593;28;19912;-56
2021/06/21 13:33:48;;;;;;;;;;;16.20;99.90;;;;;;5082524;28;19934;-53
2021/06/21 13:36:14;;;;;;;;;;;16.30;99.90;;;;;;5073399;28;19915;-56
2021/06/21 13:38:43;;;;;;;;;;;16.20;99.90;;;;;;5084712;28;19908;-53
2021/06/21 13:41:22;;;;;;;;;;;16.20;99.90;;;;;;5083682;28;19916;-53
2021/06/21 13:43:47;;;;;;;;;;;16.20;99.90;;;;;;5085346;28;20325;-54
2021/06/21 13:46:14;;;;;;;;;;;16.20;99.90;;;;;;5084755;28;19998;-57
2021/06/21 13:48:41;;;;;;;;;;;16.20;99.90;;;;;;5088016;28;19969;-54
2021/06/21 13:51:14;;;;;;;;;;;16.30;99.90;;;;;;5084755;28;19909;-58
2021/06/21 13:53:40;;;;;;;;;;;16.30;99.90;;;;;;5089861;28;19908;-55
2021/06/21 13:56:06;;;;;;;;;;;16.30;99.90;;;;;;5067205;28;19915;-58
2021/06/21 13:58:34;;;;;;;;;;;16.40;99.90;;;;;;5084164;28;20297;-55
2021/06/21 14:01:08;;;;;;;;;;;16.40;99.90;;;;;;5085360;28;20383;-55
2021/06/21 14:03:34;;;;;;;;;;;16.50;99.90;;;;;;5066724;28;20011;-58
2021/06/21 14:06:00;;;;;;;;;;;16.40;99.90;;;;;;5086351;28;19995;-57
2021/06/21 14:08:26;;;;;;;;;;;16.50;99.90;;;;;;5085565;28;19908;-55
2021/06/21 14:10:54;;;;;;;;;;;16.50;99.90;;;;;;5087090;28;19908;-56
2021/06/21 14:13:20;;;;;;;;;;;16.50;99.90;;;;;;5086480;28;19908;-57
2021/06/21 14:15:45;;;;;;;;;;;16.50;99.90;;;;;;5081855;28;19961;-58
2021/06/21 14:18:11;;;;;;;;;;;16.40;99.90;;;;;;5086589;28;19908;-57
2021/06/21 14:20:37;;;;;;;;;;;16.40;99.90;;;;;;5084551;28;19908;-61
2021/06/21 14:23:03;;;;;;;;;;;16.40;99.90;;;;;;5068302;28;19912;-55